Terminal Aerodrome Forecast
Issued by NWS Cleveland, OH

Home | Current Version | Previous Version | Graphics & Text | Print | Product List | Glossary On
Versions: 1 2 3 4 5 6 7 8 9 10 11 12 13 14 15 16 17 18 19 20
000
FTUS41 KCLE 161720
TAFERI
TAF
KERI 161720Z 1618/1718 33010KT P6SM SCT025 BKN035
     FM162300 33008KT P6SM FEW035
     FM170200 VRB04KT P6SM SKC
     FM170700 19010G18KT P6SM SCT035
     FM171700 23015G25KT P6SM SKC=

USA.gov is the U.S. government's official web portal to all federal, state and local government web resources and services.